Time;durP1;ratioP1;P1;durP2;ratioP2;P2;SDS_P1;SDS_P2;PMS_P1;PMS_P2;Temp;Humidity;BMP_temperature;BMP_pressure;BME280_temperature;BME280_humidity;BME280_pressure;Samples;Min_cycle;Max_cycle;Signal;HPM_P1;HPM_P2
2023/02/04 00:01:28;;;;;;;26.58;3.70;;;;;;;11.26;73.55;103431.22;5079286;28;20039;-39
2023/02/04 00:03:53;;;;;;;25.50;3.28;;;;;;;11.41;72.81;103429.38;5083967;28;20039;-40
2023/02/04 00:06:19;;;;;;;28.70;3.30;;;;;;;11.28;73.63;103427.00;5081711;28;20031;-41
2023/02/04 00:08:44;;;;;;;19.88;3.35;;;;;;;11.29;72.80;103441.81;5086328;28;20028;-40
2023/02/04 00:11:09;;;;;;;19.38;3.10;;;;;;;11.56;72.66;103438.00;5086806;28;20050;-41
2023/02/04 00:13:35;;;;;;;23.17;3.70;;;;;;;11.67;71.89;103441.16;5082861;28;20024;-40
2023/02/04 00:16:00;;;;;;;22.35;3.30;;;;;;;11.68;72.23;103438.63;5087648;28;20043;-40
2023/02/04 00:18:25;;;;;;;24.80;3.50;;;;;;;11.73;71.81;103444.06;5083999;28;20502;-41
2023/02/04 00:20:51;;;;;;;26.00;3.42;;;;;;;11.46;72.47;103446.22;5083787;28;20079;-39
2023/02/04 00:23:16;;;;;;;25.08;3.38;;;;;;;11.44;72.98;103445.22;5078911;28;20509;-44
2023/02/04 00:25:41;;;;;;;19.63;3.17;;;;;;;11.60;72.44;103444.25;5083050;28;20206;-41
2023/02/04 00:28:06;;;;;;;28.30;3.53;;;;;;;11.61;72.63;103438.22;5082913;28;20529;-40
2023/02/04 00:30:32;;;;;;;22.00;3.45;;;;;;;11.29;73.28;103436.59;5078241;28;20494;-41
2023/02/04 00:32:57;;;;;;;24.60;3.08;;;;;;;11.37;72.97;103438.78;5082995;28;20032;-40
2023/02/04 00:35:23;;;;;;;20.33;3.28;;;;;;;11.51;72.97;103436.88;5080371;28;20039;-44
2023/02/04 00:37:49;;;;;;;20.30;3.13;;;;;;;11.76;71.96;103446.88;5085030;28;20241;-43
2023/02/04 00:40:15;;;;;;;20.70;3.20;;;;;;;11.84;71.75;103437.66;5072681;28;20044;-41
2023/02/04 00:42:41;;;;;;;23.17;4.03;;;;;;;11.70;71.84;103447.44;5073806;22;20037;-40
2023/02/04 00:45:07;;;;;;;23.02;3.30;;;;;;;11.66;72.02;103450.69;5063825;28;20521;-42
2023/02/04 00:47:32;;;;;;;22.85;3.70;;;;;;;11.72;72.12;103450.09;5059873;28;20033;-42
2023/02/04 00:49:58;;;;;;;22.13;3.45;;;;;;;11.73;72.09;103452.84;5063639;28;20028;-43
2023/02/04 00:52:23;;;;;;;20.33;4.18;;;;;;;11.65;72.22;103451.50;5059150;28;20059;-43
2023/02/04 00:54:48;;;;;;;19.08;3.40;;;;;;;11.69;72.17;103456.09;5063544;28;20123;-42
2023/02/04 00:57:14;;;;;;;19.50;3.65;;;;;;;11.76;71.86;103452.09;5060301;28;20129;-42
2023/02/04 00:59:39;;;;;;;22.85;3.60;;;;;;;11.58;72.46;103452.06;5063622;28;20517;-42
2023/02/04 01:02:04;;;;;;;17.45;3.45;;;;;;;11.57;72.67;103447.66;5063029;28;20118;-41
2023/02/04 01:04:30;;;;;;;21.73;3.88;;;;;;;11.61;72.94;103449.56;5059747;28;20040;-41
2023/02/04 01:06:55;;;;;;;18.15;3.60;;;;;;;11.67;72.28;103456.81;5063706;28;20029;-43
2023/02/04 01:09:20;;;;;;;16.13;3.05;;;;;;;11.72;72.20;103455.31;5059608;28;20044;-38
2023/02/04 01:11:46;;;;;;;18.63;3.33;;;;;;;11.62;72.24;103459.22;5062618;28;20082;-41
2023/02/04 01:14:12;;;;;;;17.35;3.20;;;;;;;11.68;72.19;103456.91;5059194;28;20047;-41
2023/02/04 01:16:37;;;;;;;17.13;3.15;;;;;;;11.57;72.50;103452.88;5062887;28;20115;-45
2023/02/04 01:19:03;;;;;;;20.80;3.22;;;;;;;11.55;72.76;103454.50;5062927;28;20132;-38
2023/02/04 01:21:28;;;;;;;19.48;3.00;;;;;;;11.66;72.20;103452.41;5058764;28;20112;-41
2023/02/04 01:23:54;;;;;;;18.80;2.72;;;;;;;11.32;73.43;103449.81;5063461;28;20054;-40
2023/02/04 01:26:20;;;;;;;22.08;3.08;;;;;;;10.89;74.86;103460.66;5059154;28;20047;-43
2023/02/04 01:28:45;;;;;;;16.92;2.70;;;;;;;11.48;73.13;103462.84;5063113;28;20037;-41
2023/02/04 01:31:10;;;;;;;21.95;3.47;;;;;;;11.18;73.69;103461.25;5061534;28;20090;-41
2023/02/04 01:33:36;;;;;;;15.40;2.75;;;;;;;11.50;73.03;103475.97;5061904;28;20036;-42
2023/02/04 01:36:01;;;;;;;15.98;2.90;;;;;;;11.59;72.51;103477.34;5063788;28;20025;-42
2023/02/04 01:38:26;;;;;;;17.88;2.83;;;;;;;11.69;71.83;103476.09;5059752;28;20044;-44
2023/02/04 01:40:52;;;;;;;17.80;3.10;;;;;;;11.77;72.09;103477.44;5061931;28;20039;-43
2023/02/04 01:43:21;;;;;;;12.30;2.78;;;;;;;11.90;71.46;103484.13;5059902;28;20063;-41
2023/02/04 01:45:47;;;;;;;20.98;3.10;;;;;;;11.50;72.06;103484.72;5063607;28;20084;-40
2023/02/04 01:48:19;;;;;;;20.70;2.80;;;;;;;11.74;72.03;103479.88;5059240;28;20309;-44
2023/02/04 01:50:46;;;;;;;17.98;2.58;;;;;;;11.81;71.75;103492.44;5044712;28;20039;-42
2023/02/04 01:53:11;;;;;;;15.70;3.05;;;;;;;11.94;71.82;103487.00;5059053;28;20032;-51
2023/02/04 01:55:36;;;;;;;20.35;3.05;;;;;;;11.65;72.15;103492.41;5063272;28;20401;-43
2023/02/04 01:58:02;;;;;;;19.80;2.97;;;;;;;11.56;72.21;103498.09;5063203;28;20040;-42
2023/02/04 02:00:30;;;;;;;15.32;3.15;;;;;;;11.45;72.87;103496.66;5059189;28;20102;-41
2023/02/04 02:02:57;;;;;;;20.20;3.28;;;;;;;11.59;72.28;103500.84;5065248;28;20062;-42
2023/02/04 02:05:26;;;;;;;15.02;2.95;;;;;;;11.70;72.07;103504.94;5067948;28;20024;-44
2023/02/04 02:07:54;;;;;;;18.70;2.92;;;;;;;11.51;72.36;103502.19;5069660;28;20037;-42
2023/02/04 02:10:20;;;;;;;21.55;3.13;;;;;;;11.57;71.90;103501.59;5065440;28;20041;-42
2023/02/04 02:12:46;;;;;;;15.30;2.72;;;;;;;11.76;71.40;103497.44;5052140;28;20048;-41
2023/02/04 02:15:13;;;;;;;17.73;2.65;;;;;;;11.61;71.52;103498.31;5069674;28;20193;-42
2023/02/04 02:17:39;;;;;;;18.90;2.80;;;;;;;11.60;71.43;103501.75;5066378;28;20033;-42
2023/02/04 02:20:07;;;;;;;23.17;2.83;;;;;;;11.60;71.61;103501.75;5069006;28;20021;-43
2023/02/04 02:22:41;;;;;;;16.25;2.97;;;;;;;11.75;71.26;103500.88;5061414;28;20696;-46
2023/02/04 02:25:09;;;;;;;18.92;2.67;;;;;;;11.57;71.33;103501.59;5065426;28;20033;-42
2023/02/04 02:27:34;;;;;;;13.80;2.30;;;;;;;11.63;71.16;103507.16;5061853;28;20123;-42
2023/02/04 02:29:59;;;;;;;17.63;2.67;;;;;;;11.59;71.03;103511.31;5066448;28;20516;-43
2023/02/04 02:32:25;;;;;;;19.85;2.88;;;;;;;11.34;71.79;103510.88;5059157;28;20033;-42
2023/02/04 02:34:50;;;;;;;14.43;2.80;;;;;;;11.48;71.79;103511.56;5063540;28;20065;-41
2023/02/04 02:37:15;;;;;;;16.50;3.10;;;;;;;11.65;71.14;103510.72;5059014;28;20052;-41
2023/02/04 02:39:43;;;;;;;23.90;3.17;;;;;;;11.63;71.08;103518.50;5062728;28;20083;-40
2023/02/04 02:42:13;;;;;;;16.77;3.00;;;;;;;11.70;71.44;103522.31;5061930;28;20133;-41
2023/02/04 02:44:38;;;;;;;16.95;3.05;;;;;;;11.86;70.85;103526.63;5059186;28;20414;-43
2023/02/04 02:47:03;;;;;;;21.38;3.08;;;;;;;11.83;70.86;103521.25;5062693;28;20295;-41
2023/02/04 02:49:31;;;;;;;20.77;3.00;;;;;;;11.65;71.46;103527.28;5057866;28;20168;-40
2023/02/04 02:51:57;;;;;;;16.40;2.63;;;;;;;11.75;71.17;103526.09;5060623;28;20043;-41
2023/02/04 02:54:26;;;;;;;17.48;2.85;;;;;;;11.86;70.89;103524.00;5061516;28;20036;-41
2023/02/04 02:56:52;;;;;;;15.30;2.65;;;;;;;11.87;70.74;103523.19;5065738;28;20498;-39
2023/02/04 02:59:18;;;;;;;18.83;2.55;;;;;;;11.69;71.14;103525.75;5062084;28;20047;-41
2023/02/04 03:01:47;;;;;;;16.08;2.72;;;;;;;11.56;71.50;103528.56;5064986;28;20028;-43
2023/02/04 03:04:14;;;;;;;19.23;3.13;;;;;;;11.64;71.23;103533.38;5062181;28;20033;-43
2023/02/04 03:06:40;;;;;;;19.17;2.65;;;;;;;11.48;71.89;103538.59;5065030;28;20059;-41
2023/02/04 03:09:05;;;;;;;19.80;2.72;;;;;;;11.48;72.01;103532.47;5065063;28;20021;-44
2023/02/04 03:11:31;;;;;;;17.85;2.60;;;;;;;11.60;71.76;103535.72;5061534;28;20116;-41
2023/02/04 03:13:59;;;;;;;17.10;2.95;;;;;;;11.68;71.47;103530.06;5048685;28;20041;-40
2023/02/04 03:16:26;;;;;;;14.30;2.35;;;;;;;11.84;71.12;103533.47;5062413;28;20029;-42
2023/02/04 03:18:51;;;;;;;17.25;2.42;;;;;;;11.83;70.97;103524.78;5066290;28;20039;-41
2023/02/04 03:21:17;;;;;;;16.88;2.60;;;;;;;11.70;71.08;103527.56;5043466;28;20028;-41
2023/02/04 03:23:42;;;;;;;16.35;2.60;;;;;;;11.52;71.81;103534.44;5065625;28;20119;-41
2023/02/04 03:26:07;;;;;;;17.67;2.80;;;;;;;11.64;71.71;103529.84;5064579;28;20086;-41
2023/02/04 03:28:33;;;;;;;13.48;2.40;;;;;;;11.66;71.17;103531.69;5061419;28;20030;-41
2023/02/04 03:30:59;;;;;;;18.60;3.05;;;;;;;11.69;71.20;103534.50;5064643;28;20052;-41
2023/02/04 03:33:30;;;;;;;20.88;3.22;;;;;;;11.63;71.25;103533.28;5062027;28;20024;-41
2023/02/04 03:35:58;;;;;;;16.75;2.70;;;;;;;11.54;71.51;103519.72;5065161;28;20029;-41
2023/02/04 03:38:23;;;;;;;16.13;2.60;;;;;;;11.74;70.94;103526.91;5061317;28;20042;-43
2023/02/04 03:40:49;;;;;;;18.80;2.75;;;;;;;11.85;70.63;103527.44;5063751;28;20037;-42
2023/02/04 03:43:14;;;;;;;14.93;2.70;;;;;;;11.69;71.35;103536.19;5061300;28;20055;-41
2023/02/04 03:45:40;;;;;;;20.60;2.70;;;;;;;11.52;71.73;103526.59;5064397;28;20047;-42
2023/02/04 03:48:05;;;;;;;16.58;2.75;;;;;;;11.59;71.45;103523.47;5064275;28;20491;-41
2023/02/04 03:50:30;;;;;;;20.45;2.80;;;;;;;11.59;71.65;103513.00;5059964;28;20040;-41
2023/02/04 03:52:56;;;;;;;14.70;2.55;;;;;;;11.72;70.98;103525.88;5064437;28;20031;-38
2023/02/04 03:55:21;;;;;;;13.82;2.25;;;;;;;11.82;70.46;103517.75;5060067;28;20033;-41
2023/02/04 03:57:46;;;;;;;14.15;2.50;;;;;;;11.66;70.38;103510.78;5064008;28;20037;-42
2023/02/04 04:00:13;;;;;;;17.10;2.17;;;;;;;11.62;70.02;103506.25;5060225;28;20378;-42
2023/02/04 04:02:39;;;;;;;17.45;2.78;;;;;;;11.48;70.21;103504.63;5063446;28;20068;-42
2023/02/04 04:05:05;;;;;;;12.77;2.17;;;;;;;11.36;70.10;103501.38;5063743;28;20036;-41
2023/02/04 04:07:30;;;;;;;18.10;2.25;;;;;;;11.28;69.89;103497.50;5060420;28;25050;-41
2023/02/04 04:09:56;;;;;;;17.55;2.53;;;;;;;11.20;69.45;103512.75;5065280;28;20082;-42
2023/02/04 04:12:21;;;;;;;16.75;2.75;;;;;;;11.02;70.48;103521.34;5062921;28;20024;-46
2023/02/04 04:14:46;;;;;;;17.67;2.85;;;;;;;10.82;71.99;103523.75;5066204;28;20403;-41
2023/02/04 04:17:12;;;;;;;19.85;2.90;;;;;;;10.89;71.12;103532.81;5063714;28;20120;-44
2023/02/04 04:19:37;;;;;;;11.52;2.22;;;;;;;10.89;70.53;103531.09;5050131;28;20036;-41
2023/02/04 04:22:02;;;;;;;11.80;2.28;;;;;;;10.82;70.12;103543.72;5049328;28;20363;-40
2023/02/04 04:24:28;;;;;;;12.45;2.17;;;;;;;10.79;70.04;103541.88;5063999;28;20135;-45
2023/02/04 04:26:53;;;;;;;13.20;2.30;;;;;;;10.73;70.25;103554.59;5068064;28;20048;-41
2023/02/04 04:29:18;;;;;;;15.65;2.70;;;;;;;10.65;71.61;103558.47;5063854;28;20036;-43
2023/02/04 04:31:43;;;;;;;15.93;2.85;;;;;;;10.73;72.04;103561.50;5067307;28;20090;-41
2023/02/04 04:34:09;;;;;;;16.70;3.10;;;;;;;10.89;72.09;103558.91;5067124;28;20028;-42
2023/02/04 04:36:35;;;;;;;20.85;2.90;;;;;;;10.94;72.50;103563.56;5061842;28;20607;-41
2023/02/04 04:39:00;;;;;;;25.33;3.33;;;;;;;10.89;72.78;103566.75;5063246;28;20044;-42
2023/02/04 04:41:25;;;;;;;15.95;2.72;;;;;;;11.03;72.75;103575.34;5058887;28;20036;-41
2023/02/04 04:43:51;;;;;;;21.70;3.10;;;;;;;11.14;72.30;103572.50;5062544;28;20029;-42
2023/02/04 04:46:16;;;;;;;21.65;3.40;;;;;;;11.33;72.21;103563.94;5058846;28;20077;-41
2023/02/04 04:48:41;;;;;;;15.95;3.00;;;;;;;11.37;71.71;103558.94;5062623;28;20029;-43
2023/02/04 04:51:07;;;;;;;15.13;2.90;;;;;;;11.04;72.60;103582.38;5061822;28;20040;-39
2023/02/04 04:53:32;;;;;;;26.98;3.20;;;;;;;10.80;73.56;103582.78;5040786;28;20025;-43
2023/02/04 04:55:57;;;;;;;20.10;3.20;;;;;;;11.03;73.27;103581.47;5062664;28;20395;-40
2023/02/04 04:58:22;;;;;;;18.50;2.70;;;;;;;11.21;73.09;103584.16;5043160;28;20040;-42
2023/02/04 05:00:48;;;;;;;19.98;2.75;;;;;;;11.29;72.89;103586.34;5063192;28;20119;-43
2023/02/04 05:03:13;;;;;;;24.33;3.35;;;;;;;11.30;72.76;103584.66;5059038;28;20085;-45
2023/02/04 05:05:40;;;;;;;20.85;3.00;;;;;;;11.36;72.62;103584.97;5062994;28;20041;-41
2023/02/04 05:08:11;;;;;;;21.77;3.38;;;;;;;11.15;73.31;103586.44;5062550;28;20025;-40
2023/02/04 05:10:37;;;;;;;24.10;3.20;;;;;;;10.98;73.77;103595.94;5058423;28;20501;-42
2023/02/04 05:13:02;;;;;;;26.13;3.58;;;;;;;10.98;73.77;103599.47;5066110;28;20024;-40
2023/02/04 05:15:28;;;;;;;26.88;3.17;;;;;;;11.17;73.36;103595.25;5064238;28;20048;-43
2023/02/04 05:17:53;;;;;;;26.30;3.97;;;;;;;11.16;73.15;103583.91;5068180;28;20448;-43
2023/02/04 05:20:18;;;;;;;28.92;3.33;;;;;;;11.34;73.00;103584.88;5063283;28;20032;-41
2023/02/04 05:22:43;;;;;;;26.50;3.30;;;;;;;11.27;73.07;103589.72;5067967;28;20169;-41
2023/02/04 05:25:09;;;;;;;25.48;3.47;;;;;;;11.39;72.99;103583.44;5068879;28;20055;-41
2023/02/04 05:27:35;;;;;;;22.25;3.38;;;;;;;11.53;72.38;103580.63;5065318;28;20040;-43
2023/02/04 05:30:00;;;;;;;26.08;3.70;;;;;;;11.53;72.56;103589.38;5050605;28;20195;-43
2023/02/04 05:32:25;;;;;;;23.92;3.50;;;;;;;11.40;72.80;103585.19;5064073;28;20027;-40
2023/02/04 05:34:50;;;;;;;22.63;3.40;;;;;;;11.33;73.02;103588.34;5064171;28;20032;-43
2023/02/04 05:37:17;;;;;;;25.73;3.35;;;;;;;11.51;72.79;103590.13;5058923;28;20064;-43
2023/02/04 05:39:43;;;;;;;17.80;2.75;;;;;;;11.63;72.19;103594.28;5062955;28;20457;-43
2023/02/04 05:42:08;;;;;;;25.65;3.38;;;;;;;11.36;72.75;103598.03;5062473;28;20037;-47
2023/02/04 05:44:33;;;;;;;25.75;3.78;;;;;;;11.33;73.03;103592.66;5058567;28;20032;-46
2023/02/04 05:46:59;;;;;;;21.02;3.55;;;;;;;11.50;72.76;103597.06;5062908;28;20055;-42
2023/02/04 05:49:24;;;;;;;19.10;3.25;;;;;;;11.60;72.46;103587.97;5058905;28;20074;-41
2023/02/04 05:51:49;;;;;;;25.98;3.67;;;;;;;11.62;72.38;103600.31;5062533;28;20035;-41
2023/02/04 05:54:18;;;;;;;25.92;3.03;;;;;;;11.44;72.43;103599.34;5061282;28;20025;-40
2023/02/04 05:56:44;;;;;;;22.38;3.40;;;;;;;11.49;72.63;103597.88;5066597;28;20028;-43
2023/02/04 05:59:10;;;;;;;20.20;3.80;;;;;;;11.46;72.71;103594.22;5067257;28;20036;-41
2023/02/04 06:01:35;;;;;;;24.30;3.85;;;;;;;11.34;73.27;103604.91;5062329;28;20787;-41
2023/02/04 06:04:00;;;;;;;27.23;3.80;;;;;;;11.29;73.64;103603.72;5066332;28;20040;-43
2023/02/04 06:06:25;;;;;;;26.08;3.60;;;;;;;11.29;73.32;103606.34;5061265;28;20621;-44
2023/02/04 06:08:51;;;;;;;27.80;3.20;;;;;;;11.22;74.09;103614.69;5064104;28;20489;-38
2023/02/04 06:11:16;;;;;;;19.88;3.40;;;;;;;11.33;73.43;103614.44;5058396;28;20033;-45
2023/02/04 06:13:41;;;;;;;24.75;3.60;;;;;;;11.48;73.36;103619.59;5062149;28;20039;-42
2023/02/04 06:16:07;;;;;;;19.55;2.90;;;;;;;11.77;72.31;103621.16;5061847;28;20127;-43
2023/02/04 06:18:32;;;;;;;18.38;3.80;;;;;;;11.63;72.30;103619.50;5058387;28;20506;-42
2023/02/04 06:20:57;;;;;;;31.05;3.75;;;;;;;11.32;73.76;103628.31;5061897;28;20029;-41
2023/02/04 06:23:23;;;;;;;23.98;4.10;;;;;;;11.61;73.06;103634.19;5040514;28;20107;-42
2023/02/04 06:25:49;;;;;;;18.20;3.15;;;;;;;11.69;72.63;103631.19;5062429;28;20063;-41
2023/02/04 06:28:14;;;;;;;17.45;2.90;;;;;;;11.77;72.26;103634.25;5061659;28;20028;-41
2023/02/04 06:30:40;;;;;;;27.83;3.67;;;;;;;11.75;72.34;103634.16;5064560;28;20036;-40
2023/02/04 06:33:05;;;;;;;23.75;3.25;;;;;;;11.77;72.28;103642.94;5065344;28;20060;-43
2023/02/04 06:35:30;;;;;;;18.52;3.75;;;;;;;11.76;72.12;103635.06;5063512;28;23029;-42
2023/02/04 06:37:56;;;;;;;19.50;3.28;;;;;;;11.94;71.92;103630.78;5066151;28;20190;-40
2023/02/04 06:40:21;;;;;;;18.27;3.20;;;;;;;11.85;72.06;103639.84;5044190;28;20043;-41
2023/02/04 06:42:46;;;;;;;21.05;3.50;;;;;;;11.93;71.76;103641.16;5074917;22;20468;-44
2023/02/04 06:45:11;;;;;;;21.77;3.80;;;;;;;11.89;71.88;103649.66;5041850;28;20024;-43
2023/02/04 06:47:37;;;;;;;17.02;3.53;;;;;;;11.88;72.14;103653.09;5045841;28;20037;-43
2023/02/04 06:50:02;;;;;;;22.55;3.40;;;;;;;11.86;71.90;103650.38;5047318;28;20029;-44
2023/02/04 06:52:28;;;;;;;23.05;3.90;;;;;;;11.71;72.22;103658.28;5045753;28;20442;-43
2023/02/04 06:54:53;;;;;;;25.13;4.20;;;;;;;11.59;72.42;103661.94;5047994;28;20029;-44
2023/02/04 06:57:18;;;;;;;20.05;3.35;;;;;;;11.72;72.48;103657.47;5041816;28;20403;-47
2023/02/04 06:59:45;;;;;;;18.42;3.05;;;;;;;11.90;71.84;103657.56;5027184;28;20033;-44
2023/02/04 07:02:11;;;;;;;23.90;3.50;;;;;;;11.89;71.53;103660.13;5026077;28;20498;-44
2023/02/04 07:04:36;;;;;;;18.45;3.25;;;;;;;11.98;71.41;103671.94;5041868;28;20061;-43
2023/02/04 07:07:02;;;;;;;16.40;4.10;;;;;;;12.00;71.08;103672.03;5045161;28;20510;-43
2023/02/04 07:09:27;;;;;;;16.88;3.50;;;;;;;11.86;71.94;103673.91;5042012;28;20556;-46
2023/02/04 07:11:53;;;;;;;21.52;3.80;;;;;;;11.86;71.81;103675.63;5044825;28;20029;-45
2023/02/04 07:14:18;;;;;;;26.55;4.82;;;;;;;11.74;72.11;103676.78;5042481;28;20083;-45
2023/02/04 07:16:43;;;;;;;25.42;6.32;;;;;;;11.75;72.21;103675.97;5044950;28;20053;-47
2023/02/04 07:19:09;;;;;;;28.10;7.43;;;;;;;11.81;72.26;103670.16;5044954;28;20067;-43
2023/02/04 07:21:34;;;;;;;24.70;4.75;;;;;;;11.70;72.36;103671.28;5040583;28;20147;-44
2023/02/04 07:24:00;;;;;;;25.98;4.70;;;;;;;11.62;72.68;103676.09;5044479;28;20045;-44
2023/02/04 07:26:25;;;;;;;22.67;4.30;;;;;;;11.53;73.22;103674.69;5022892;28;20044;-43
2023/02/04 07:28:51;;;;;;;19.10;4.00;;;;;;;11.63;73.06;103677.91;5043646;28;20410;-47
2023/02/04 07:31:16;;;;;;;26.80;4.70;;;;;;;11.53;73.25;103672.97;5039836;28;20091;-44
2023/02/04 07:33:41;;;;;;;26.25;5.25;;;;;;;11.64;73.19;103671.84;5044724;28;20365;-46
2023/02/04 07:36:07;;;;;;;27.88;4.90;;;;;;;11.56;73.28;103675.75;5026822;28;20505;-48
2023/02/04 07:38:32;;;;;;;23.40;4.40;;;;;;;11.70;73.00;103684.34;5040256;28;20381;-45
2023/02/04 07:40:58;;;;;;;24.35;4.60;;;;;;;11.72;73.00;103686.22;5026237;28;20441;-45
2023/02/04 07:43:23;;;;;;;24.33;4.85;;;;;;;11.90;72.49;103682.78;5040511;28;20083;-44
2023/02/04 07:45:48;;;;;;;22.13;4.70;;;;;;;11.89;72.36;103684.53;5043965;28;20025;-44
2023/02/04 07:48:14;;;;;;;26.02;4.70;;;;;;;11.81;72.52;103684.94;5040621;28;20037;-47
2023/02/04 07:50:39;;;;;;;27.40;4.68;;;;;;;11.45;73.85;103695.19;5043710;28;20577;-43
2023/02/04 07:53:04;;;;;;;23.02;4.88;;;;;;;11.44;73.73;103688.16;5044156;28;20132;-46
2023/02/04 07:55:30;;;;;;;27.45;4.80;;;;;;;11.59;73.95;103686.38;5040209;28;20063;-46
2023/02/04 07:57:56;;;;;;;25.58;4.65;;;;;;;11.91;73.00;103682.00;5044408;28;20033;-44
2023/02/04 08:00:21;;;;;;;21.30;4.55;;;;;;;12.16;72.04;103685.97;5039527;28;20037;-43
2023/02/04 08:02:47;;;;;;;24.33;4.70;;;;;;;12.25;71.63;103689.88;5044051;28;20025;-48
2023/02/04 08:05:12;;;;;;;22.80;4.32;;;;;;;12.15;72.05;103702.47;5040038;28;20090;-44
2023/02/04 08:07:38;;;;;;;27.05;4.55;;;;;;;12.29;71.58;103700.56;5044098;28;20494;-44
2023/02/04 08:10:05;;;;;;;19.05;4.10;;;;;;;12.25;71.86;103701.25;5043786;28;20083;-43
2023/02/04 08:12:31;;;;;;;25.65;5.80;;;;;;;12.27;71.94;103704.81;5039135;28;21269;-48
2023/02/04 08:14:57;;;;;;;25.80;5.78;;;;;;;12.26;71.81;103712.59;5043603;28;20033;-44
2023/02/04 08:17:23;;;;;;;18.35;5.45;;;;;;;12.46;71.81;103712.78;5039518;28;20028;-42
2023/02/04 08:19:48;;;;;;;21.52;5.20;;;;;;;12.39;71.71;103712.38;5039698;28;20033;-40
2023/02/04 08:22:13;;;;;;;25.13;5.75;;;;;;;12.46;71.69;103715.41;5038708;28;20025;-48
2023/02/04 08:24:39;;;;;;;25.55;5.45;;;;;;;12.24;71.68;103720.38;5043621;28;20396;-45
2023/02/04 08:27:04;;;;;;;23.35;5.57;;;;;;;12.50;71.49;103722.56;5042672;28;20447;-45
2023/02/04 08:29:29;;;;;;;25.05;5.90;;;;;;;12.51;71.62;103720.84;5039929;28;20033;-43
2023/02/04 08:31:55;;;;;;;20.88;4.88;;;;;;;12.65;71.43;103730.31;5043072;28;20025;-44
2023/02/04 08:34:20;;;;;;;31.42;5.72;;;;;;;12.43;71.41;103730.06;5040938;28;20044;-46
2023/02/04 08:36:45;;;;;;;23.80;5.07;;;;;;;12.59;71.33;103735.25;5046916;28;20033;-44
2023/02/04 08:39:11;;;;;;;27.48;5.30;;;;;;;12.85;70.80;103734.84;5048875;28;20110;-44
2023/02/04 08:41:37;;;;;;;20.65;4.78;;;;;;;12.83;70.58;103744.31;5044801;28;20450;-47
2023/02/04 08:44:02;;;;;;;19.20;5.30;;;;;;;12.96;69.90;103746.72;5028682;28;20067;-43
2023/02/04 08:46:28;;;;;;;26.23;4.90;;;;;;;12.74;69.75;103745.59;5041486;28;20146;-43
2023/02/04 08:48:53;;;;;;;20.27;5.05;;;;;;;12.56;70.54;103756.03;5045550;28;20024;-48
2023/02/04 08:51:18;;;;;;;24.60;4.75;;;;;;;12.62;70.35;103755.44;5039421;28;20029;-44
2023/02/04 08:53:43;;;;;;;22.17;5.15;;;;;;;12.74;70.18;103758.69;5044256;28;20028;-44
2023/02/04 08:56:09;;;;;;;19.52;4.47;;;;;;;12.81;70.06;103750.28;5044567;28;20033;-44
2023/02/04 08:58:35;;;;;;;15.43;4.32;;;;;;;12.76;70.33;103755.31;5042863;28;20047;-42
2023/02/04 09:01:00;;;;;;;21.20;4.88;;;;;;;12.69;70.79;103753.19;5044631;28;20033;-43
2023/02/04 09:03:26;;;;;;;23.60;6.00;;;;;;;12.38;71.06;103750.72;5039790;28;20040;-44
2023/02/04 09:05:51;;;;;;;16.80;4.70;;;;;;;12.71;70.90;103751.56;5043739;28;20120;-43
2023/02/04 09:08:16;;;;;;;19.33;5.28;;;;;;;12.81;70.98;103759.03;5040197;28;20037;-43
2023/02/04 09:10:42;;;;;;;20.05;4.97;;;;;;;12.99;70.50;103753.84;5045548;28;20048;-42
2023/02/04 09:13:10;;;;;;;17.58;5.07;;;;;;;13.06;69.97;103757.63;5045144;28;20115;-43
2023/02/04 09:15:36;;;;;;;22.73;5.05;;;;;;;13.04;69.95;103756.69;5041507;28;20032;-44
2023/02/04 09:18:10;;;;;;;18.45;5.05;;;;;;;13.19;69.83;103754.84;5045273;28;20556;-43
2023/02/04 09:20:38;;;;;;;20.70;5.32;;;;;;;13.02;70.13;103767.97;5022689;28;20053;-42
2023/02/04 09:23:03;;;;;;;17.27;4.90;;;;;;;13.00;70.02;103771.34;5044739;28;20443;-45
2023/02/04 09:25:28;;;;;;;22.58;5.40;;;;;;;13.09;69.37;103766.56;5041252;28;20063;-43
2023/02/04 09:27:54;;;;;;;20.55;5.85;;;;;;;13.09;69.05;103771.81;5046261;28;20132;-44
2023/02/04 09:30:19;;;;;;;18.58;6.00;;;;;;;13.14;68.81;103775.56;5043133;28;20035;-45
2023/02/04 09:32:44;;;;;;;23.13;5.57;;;;;;;13.35;68.46;103766.16;5046910;28;20065;-45
2023/02/04 09:35:10;;;;;;;18.27;5.10;;;;;;;13.32;68.50;103772.94;5048642;28;20368;-44
2023/02/04 09:37:35;;;;;;;19.50;5.38;;;;;;;13.41;68.06;103776.03;5045330;28;20041;-46
2023/02/04 09:40:01;;;;;;;21.20;5.10;;;;;;;13.14;67.79;103772.94;5046852;28;20033;-44
2023/02/04 09:42:27;;;;;;;18.00;4.80;;;;;;;13.37;67.54;103785.44;5041136;28;20052;-47
2023/02/04 09:44:53;;;;;;;23.48;5.63;;;;;;;13.46;66.75;103777.13;5051127;28;20033;-45
2023/02/04 09:47:22;;;;;;;23.63;5.88;;;;;;;13.56;66.81;103788.94;5051599;28;20032;-45
2023/02/04 09:49:47;;;;;;;19.88;4.70;;;;;;;13.54;67.01;103785.38;5048737;28;20098;-44
2023/02/04 09:52:15;;;;;;;22.70;5.15;;;;;;;13.70;66.68;103787.88;5040473;28;20445;-46
2023/02/04 09:54:41;;;;;;;19.27;4.95;;;;;;;13.68;66.33;103798.28;5045690;28;20067;-45
2023/02/04 09:57:14;;;;;;;19.83;4.68;;;;;;;13.74;66.56;103801.19;5045647;28;20551;-44
2023/02/04 09:59:41;;;;;;;19.55;4.68;;;;;;;13.87;65.49;103804.38;5040855;28;20522;-46
2023/02/04 10:02:21;;;;;;;22.05;4.80;;;;;;;13.72;65.61;103802.81;5043327;28;20041;-44
2023/02/04 10:04:47;;;;;;;19.60;4.30;;;;;;;13.87;65.64;103801.75;5042343;28;20072;-44
2023/02/04 10:07:14;;;;;;;21.77;4.90;;;;;;;13.89;65.60;103807.97;5042567;28;20060;-45
2023/02/04 10:09:39;;;;;;;16.55;3.92;;;;;;;13.78;65.72;103815.38;5032203;28;20033;-43
2023/02/04 10:12:06;;;;;;;17.27;4.38;;;;;;;14.04;65.83;103812.19;5049260;28;20029;-42
2023/02/04 10:14:31;;;;;;;17.58;4.75;;;;;;;14.03;65.46;103807.78;5047190;28;24149;-43
2023/02/04 10:16:59;;;;;;;17.05;5.00;;;;;;;13.92;64.50;103810.72;5048591;28;20064;-43
2023/02/04 10:19:27;;;;;;;16.75;5.03;;;;;;;13.86;64.86;103815.69;5044900;28;20052;-45
2023/02/04 10:21:52;;;;;;;16.15;4.32;;;;;;;13.72;64.18;103818.56;5050684;28;20045;-47
2023/02/04 10:24:20;;;;;;;14.52;4.10;;;;;;;14.03;63.92;103813.03;5046997;28;20249;-44
2023/02/04 10:26:46;;;;;;;15.93;3.60;;;;;;;13.81;62.53;103812.88;5050793;28;20482;-46
2023/02/04 10:29:18;;;;;;;15.25;3.28;;;;;;;13.94;63.43;103820.47;5051370;28;20057;-44
2023/02/04 10:31:46;;;;;;;20.65;3.90;;;;;;;13.70;63.28;103820.25;5043496;28;20041;-45
2023/02/04 10:34:19;;;;;;;13.68;3.70;;;;;;;13.90;63.85;103823.81;5046845;28;20025;-44
2023/02/04 10:36:56;;;;;;;11.60;3.30;;;;;;;14.14;63.34;103816.16;5047324;28;20040;-46
2023/02/04 10:39:29;;;;;;;11.32;2.70;;;;;;;14.23;62.49;103821.81;5046891;28;20092;-44
2023/02/04 10:41:57;;;;;;;12.85;3.28;;;;;;;14.44;62.07;103825.44;5049151;28;20067;-44
2023/02/04 10:44:28;;;;;;;16.05;3.20;;;;;;;14.06;61.82;103822.78;5046968;28;20036;-43
2023/02/04 10:47:23;;;;;;;14.82;3.15;;;;;;;14.06;62.39;103831.53;5049926;28;20102;-47
2023/02/04 10:50:02;;;;;;;14.45;2.58;;;;;;;14.27;61.92;103830.72;5025611;28;20124;-45
2023/02/04 10:52:51;;;;;;;13.10;2.80;;;;;;;14.17;61.18;103825.06;5044322;28;20060;-43
2023/02/04 10:55:19;;;;;;;17.10;3.17;;;;;;;14.28;60.96;103822.91;5043454;28;20031;-46
2023/02/04 10:57:47;;;;;;;11.63;3.00;;;;;;;14.61;61.25;103828.78;5047809;28;20052;-44
2023/02/04 11:00:22;;;;;;;17.75;3.80;;;;;;;14.46;60.58;103830.72;5043124;28;20033;-44
2023/02/04 11:03:01;;;;;;;13.98;3.08;;;;;;;14.52;60.82;103826.66;5045409;28;20045;-42
2023/02/04 11:05:32;;;;;;;14.10;3.72;;;;;;;14.54;60.95;103822.38;5023599;28;20566;-43
2023/02/04 11:07:57;;;;;;;15.48;3.67;;;;;;;14.50;60.76;103819.56;5045142;28;20048;-46
2023/02/04 11:10:27;;;;;;;16.52;4.00;;;;;;;14.57;60.99;103812.03;5041018;28;20025;-46
2023/02/04 11:12:53;;;;;;;17.08;4.03;;;;;;;14.44;62.03;103814.03;5044183;28;20029;-43